sensor_id;sensor_type;location;lat;lon;timestamp;pressure;altitude;pressure_sealevel;temperature;humidity
14818;BME280;7500;57.698;11.986;2022-08-19T00:01:34;101340.63;;;23.34;100.00
14818;BME280;7500;57.698;11.986;2022-08-19T00:04:05;101357.53;;;23.27;100.00
14818;BME280;7500;57.698;11.986;2022-08-19T00:06:33;101349.72;;;23.24;100.00
14818;BME280;7500;57.698;11.986;2022-08-19T00:09:00;101329.47;;;23.20;100.00
14818;BME280;7500;57.698;11.986;2022-08-19T00:11:27;101339.09;;;23.13;100.00
14818;BME280;7500;57.698;11.986;2022-08-19T00:13:55;101340.41;;;23.09;100.00
14818;BME280;7500;57.698;11.986;2022-08-19T00:16:23;101336.13;;;23.16;100.00
14818;BME280;7500;57.698;11.986;2022-08-19T00:18:50;101345.06;;;23.26;100.00
14818;BME280;7500;57.698;11.986;2022-08-19T00:21:18;101337.84;;;23.26;100.00
14818;BME280;7500;57.698;11.986;2022-08-19T00:23:45;101342.50;;;23.15;100.00
14818;BME280;7500;57.698;11.986;2022-08-19T00:26:11;101345.50;;;23.12;100.00
14818;BME280;7500;57.698;11.986;2022-08-19T00:28:38;101337.09;;;23.05;100.00
14818;BME280;7500;57.698;11.986;2022-08-19T00:31:07;101338.81;;;22.97;100.00
14818;BME280;7500;57.698;11.986;2022-08-19T00:33:35;101333.72;;;23.03;100.00
14818;BME280;7500;57.698;11.986;2022-08-19T00:36:04;101335.25;;;22.96;100.00
14818;BME280;7500;57.698;11.986;2022-08-19T00:38:34;101334.16;;;22.99;100.00
14818;BME280;7500;57.698;11.986;2022-08-19T00:41:01;101333.44;;;22.97;100.00
14818;BME280;7500;57.698;11.986;2022-08-19T00:43:27;101325.63;;;22.94;100.00
14818;BME280;7500;57.698;11.986;2022-08-19T00:45:54;101337.25;;;22.94;100.00
14818;BME280;7500;57.698;11.986;2022-08-19T00:48:21;101338.53;;;23.00;100.00
14818;BME280;7500;57.698;11.986;2022-08-19T00:50:50;101339.53;;;22.99;100.00
14818;BME280;7500;57.698;11.986;2022-08-19T00:53:20;101349.06;;;23.12;100.00
14818;BME280;7500;57.698;11.986;2022-08-19T00:55:51;101323.78;;;22.94;100.00
14818;BME280;7500;57.698;11.986;2022-08-19T00:58:21;101347.03;;;22.95;100.00
14818;BME280;7500;57.698;11.986;2022-08-19T01:00:50;101341.53;;;22.88;100.00
14818;BME280;7500;57.698;11.986;2022-08-19T01:03:19;101347.19;;;22.94;100.00
14818;BME280;7500;57.698;11.986;2022-08-19T01:05:47;101348.03;;;22.94;100.00
14818;BME280;7500;57.698;11.986;2022-08-19T01:08:16;101349.88;;;22.94;100.00
14818;BME280;7500;57.698;11.986;2022-08-19T01:10:47;101346.91;;;22.97;100.00
14818;BME280;7500;57.698;11.986;2022-08-19T01:13:17;101343.94;;;22.90;100.00
14818;BME280;7500;57.698;11.986;2022-08-19T01:15:49;101348.47;;;22.90;100.00
14818;BME280;7500;57.698;11.986;2022-08-19T01:18:18;101350.72;;;22.94;100.00
14818;BME280;7500;57.698;11.986;2022-08-19T01:20:46;101352.56;;;22.94;100.00
14818;BME280;7500;57.698;11.986;2022-08-19T01:23:15;101354.41;;;22.84;100.00
14818;BME280;7500;57.698;11.986;2022-08-19T01:25:46;101342.66;;;22.85;100.00
14818;BME280;7500;57.698;11.986;2022-08-19T01:28:18;101345.19;;;22.96;100.00
14818;BME280;7500;57.698;11.986;2022-08-19T01:30:46;101334.84;;;23.01;100.00
14818;BME280;7500;57.698;11.986;2022-08-19T01:33:13;101333.88;;;23.02;100.00
14818;BME280;7500;57.698;11.986;2022-08-19T01:35:40;101333.88;;;22.92;100.00
14818;BME280;7500;57.698;11.986;2022-08-19T01:38:09;101334.72;;;22.84;100.00
14818;BME280;7500;57.698;11.986;2022-08-19T01:40:39;101326.78;;;22.82;100.00
14818;BME280;7500;57.698;11.986;2022-08-19T01:43:07;101330.19;;;22.84;100.00
14818;BME280;7500;57.698;11.986;2022-08-19T01:45:35;101325.94;;;22.91;100.00
14818;BME280;7500;57.698;11.986;2022-08-19T01:48:05;101323.66;;;22.87;100.00
14818;BME280;7500;57.698;11.986;2022-08-19T01:50:33;101336.97;;;22.97;100.00
14818;BME280;7500;57.698;11.986;2022-08-19T01:53:02;101349.44;;;22.98;100.00
14818;BME280;7500;57.698;11.986;2022-08-19T01:55:29;101347.91;;;22.96;100.00
14818;BME280;7500;57.698;11.986;2022-08-19T01:58:00;101344.47;;;23.03;100.00
14818;BME280;7500;57.698;11.986;2022-08-19T02:00:30;101342.38;;;23.07;100.00
14818;BME280;7500;57.698;11.986;2022-08-19T02:02:57;101338.41;;;23.20;100.00
14818;BME280;7500;57.698;11.986;2022-08-19T02:05:26;101323.03;;;23.30;100.00
14818;BME280;7500;57.698;11.986;2022-08-19T02:07:54;101327.72;;;23.38;100.00
14818;BME280;7500;57.698;11.986;2022-08-19T02:10:22;101327.31;;;23.33;100.00
14818;BME280;7500;57.698;11.986;2022-08-19T02:12:49;101329.56;;;23.37;100.00
14818;BME280;7500;57.698;11.986;2022-08-19T02:15:18;101319.25;;;23.23;100.00
14818;BME280;7500;57.698;11.986;2022-08-19T02:17:46;101337.22;;;23.42;100.00
14818;BME280;7500;57.698;11.986;2022-08-19T02:20:14;101317.56;;;23.13;100.00
14818;BME280;7500;57.698;11.986;2022-08-19T02:22:42;101331.59;;;23.26;100.00
14818;BME280;7500;57.698;11.986;2022-08-19T02:25:10;101338.66;;;23.27;100.00
14818;BME280;7500;57.698;11.986;2022-08-19T02:27:38;101329.34;;;23.21;100.00
14818;BME280;7500;57.698;11.986;2022-08-19T02:30:07;101316.72;;;23.12;100.00
14818;BME280;7500;57.698;11.986;2022-08-19T02:32:36;101335.00;;;23.18;100.00
14818;BME280;7500;57.698;11.986;2022-08-19T02:35:03;101341.94;;;23.21;100.00
14818;BME280;7500;57.698;11.986;2022-08-19T02:37:30;101335.25;;;23.25;100.00
14818;BME280;7500;57.698;11.986;2022-08-19T02:40:14;101335.00;;;23.18;100.00
14818;BME280;7500;57.698;11.986;2022-08-19T02:42:43;101332.03;;;23.12;100.00
14818;BME280;7500;57.698;11.986;2022-08-19T02:45:11;101336.72;;;23.10;100.00
14818;BME280;7500;57.698;11.986;2022-08-19T02:47:39;101338.97;;;23.05;100.00
14818;BME280;7500;57.698;11.986;2022-08-19T02:50:07;101333.44;;;22.97;100.00
14818;BME280;7500;57.698;11.986;2022-08-19T02:52:34;101339.84;;;22.87;100.00
14818;BME280;7500;57.698;11.986;2022-08-19T02:55:01;101334.13;;;22.80;100.00
14818;BME280;7500;57.698;11.986;2022-08-19T02:57:30;101328.03;;;22.78;100.00
14818;BME280;7500;57.698;11.986;2022-08-19T02:59:58;101334.72;;;22.84;100.00
14818;BME280;7500;57.698;11.986;2022-08-19T03:02:24;101332.59;;;22.87;100.00
14818;BME280;7500;57.698;11.986;2022-08-19T03:04:53;101326.34;;;22.77;100.00
14818;BME280;7500;57.698;11.986;2022-08-19T03:07:19;101336.97;;;22.88;100.00
14818;BME280;7500;57.698;11.986;2022-08-19T03:09:46;101335.84;;;23.00;100.00
14818;BME280;7500;57.698;11.986;2022-08-19T03:12:13;101332.16;;;23.01;100.00
14818;BME280;7500;57.698;11.986;2022-08-19T03:14:40;101336.13;;;22.97;100.00
14818;BME280;7500;57.698;11.986;2022-08-19T03:17:06;101336.41;;;23.03;100.00
14818;BME280;7500;57.698;11.986;2022-08-19T03:19:33;101337.97;;;23.06;100.00
14818;BME280;7500;57.698;11.986;2022-08-19T03:22:02;101332.72;;;22.95;100.00
14818;BME280;7500;57.698;11.986;2022-08-19T03:24:30;101330.88;;;23.05;100.00
14818;BME280;7500;57.698;11.986;2022-08-19T03:26:57;101320.53;;;23.00;100.00
14818;BME280;7500;57.698;11.986;2022-08-19T03:29:24;101323.66;;;22.96;100.00
14818;BME280;7500;57.698;11.986;2022-08-19T03:31:51;101329.59;;;22.90;100.00
14818;BME280;7500;57.698;11.986;2022-08-19T03:34:21;101319.09;;;22.96;100.00
14818;BME280;7500;57.698;11.986;2022-08-19T03:36:48;101317.56;;;22.94;100.00
14818;BME280;7500;57.698;11.986;2022-08-19T03:39:17;101315.88;;;22.84;100.00
14818;BME280;7500;57.698;11.986;2022-08-19T03:41:45;101310.50;;;22.84;100.00
14818;BME280;7500;57.698;11.986;2022-08-19T03:44:12;101319.28;;;22.76;100.00
14818;BME280;7500;57.698;11.986;2022-08-19T03:46:39;101319.28;;;22.76;100.00
14818;BME280;7500;57.698;11.986;2022-08-19T03:49:06;101318.41;;;22.76;100.00
14818;BME280;7500;57.698;11.986;2022-08-19T03:51:35;101313.16;;;22.65;100.00
14818;BME280;7500;57.698;11.986;2022-08-19T03:54:05;101318.25;;;22.77;100.00
14818;BME280;7500;57.698;11.986;2022-08-19T03:56:35;101321.84;;;22.68;100.00
14818;BME280;7500;57.698;11.986;2022-08-19T03:59:04;101322.97;;;22.75;100.00
14818;BME280;7500;57.698;11.986;2022-08-19T04:01:30;101318.59;;;22.74;100.00
14818;BME280;7500;57.698;11.986;2022-08-19T04:03:58;101320.13;;;22.77;100.00
14818;BME280;7500;57.698;11.986;2022-08-19T04:06:28;101325.06;;;22.81;100.00
14818;BME280;7500;57.698;11.986;2022-08-19T04:08:56;101339.97;;;23.04;100.00
14818;BME280;7500;57.698;11.986;2022-08-19T04:11:25;101331.88;;;22.76;100.00
14818;BME280;7500;57.698;11.986;2022-08-19T04:13:54;101335.56;;;22.75;100.00
14818;BME280;7500;57.698;11.986;2022-08-19T04:16:23;101329.63;;;22.71;100.00
14818;BME280;7500;57.698;11.986;2022-08-19T04:18:51;101328.47;;;22.74;100.00
14818;BME280;7500;57.698;11.986;2022-08-19T04:21:20;101328.19;;;22.77;100.00
14818;BME280;7500;57.698;11.986;2022-08-19T04:23:48;101331.59;;;22.88;100.00
14818;BME280;7500;57.698;11.986;2022-08-19T04:26:16;101321.56;;;22.71;100.00
14818;BME280;7500;57.698;11.986;2022-08-19T04:28:44;101329.63;;;22.71;100.00
14818;BME280;7500;57.698;11.986;2022-08-19T04:31:15;101327.22;;;22.68;100.00
14818;BME280;7500;57.698;11.986;2022-08-19T04:33:42;101334.44;;;22.68;100.00
14818;BME280;7500;57.698;11.986;2022-08-19T04:36:16;101330.91;;;22.67;100.00
14818;BME280;7500;57.698;11.986;2022-08-19T04:38:46;101324.25;;;22.71;100.00
14818;BME280;7500;57.698;11.986;2022-08-19T04:41:13;101333.59;;;22.77;100.00
14818;BME280;7500;57.698;11.986;2022-08-19T04:43:57;101318.59;;;22.74;100.00
14818;BME280;7500;57.698;11.986;2022-08-19T04:46:26;101329.03;;;22.77;100.00
14818;BME280;7500;57.698;11.986;2022-08-19T04:48:54;101328.19;;;22.86;100.00
14818;BME280;7500;57.698;11.986;2022-08-19T04:51:22;101327.63;;;22.92;100.00
14818;BME280;7500;57.698;11.986;2022-08-19T04:53:50;101329.06;;;22.87;100.00
14818;BME280;7500;57.698;11.986;2022-08-19T04:56:18;101333.72;;;22.85;100.00
14818;BME280;7500;57.698;11.986;2022-08-19T04:58:50;101327.63;;;22.83;100.00
14818;BME280;7500;57.698;11.986;2022-08-19T05:01:19;101339.81;;;22.77;100.00
14818;BME280;7500;57.698;11.986;2022-08-19T05:03:47;101345.78;;;22.71;100.00
14818;BME280;7500;57.698;11.986;2022-08-19T05:06:16;101339.53;;;22.80;100.00
14818;BME280;7500;57.698;11.986;2022-08-19T05:08:43;101339.97;;;22.85;100.00
14818;BME280;7500;57.698;11.986;2022-08-19T05:11:13;101349.72;;;22.86;100.00
14818;BME280;7500;57.698;11.986;2022-08-19T05:13:40;101348.34;;;22.91;100.00
14818;BME280;7500;57.698;11.986;2022-08-19T05:16:07;101344.91;;;22.99;100.00
14818;BME280;7500;57.698;11.986;2022-08-19T05:18:34;101348.31;;;23.01;100.00
14818;BME280;7500;57.698;11.986;2022-08-19T05:21:20;101339.94;;;22.94;100.00
14818;BME280;7500;57.698;11.986;2022-08-19T05:24:05;101348.75;;;22.87;100.00
14818;BME280;7500;57.698;11.986;2022-08-19T05:26:34;101334.13;;;22.80;100.00
14818;BME280;7500;57.698;11.986;2022-08-19T05:29:02;101344.06;;;22.80;100.00
14818;BME280;7500;57.698;11.986;2022-08-19T05:31:30;101344.91;;;22.80;100.00
14818;BME280;7500;57.698;11.986;2022-08-19T05:33:57;101349.88;;;22.94;100.00
14818;BME280;7500;57.698;11.986;2022-08-19T05:36:25;101350.88;;;22.93;100.00
14818;BME280;7500;57.698;11.986;2022-08-19T05:38:53;101350.31;;;23.08;100.00
14818;BME280;7500;57.698;11.986;2022-08-19T05:41:21;101349.50;;;23.08;100.00
14818;BME280;7500;57.698;11.986;2022-08-19T05:43:55;101348.63;;;23.07;100.00
14818;BME280;7500;57.698;11.986;2022-08-19T05:46:23;101361.50;;;22.94;100.00
14818;BME280;7500;57.698;11.986;2022-08-19T05:48:50;101365.75;;;22.78;100.00
14818;BME280;7500;57.698;11.986;2022-08-19T05:51:16;101363.91;;;22.79;100.00
14818;BME280;7500;57.698;11.986;2022-08-19T05:53:45;101365.34;;;22.83;100.00
14818;BME280;7500;57.698;11.986;2022-08-19T05:56:13;101355.28;;;22.85;100.00
14818;BME280;7500;57.698;11.986;2022-08-19T05:58:42;101344.06;;;22.89;100.00
14818;BME280;7500;57.698;11.986;2022-08-19T06:01:11;101349.59;;;22.69;100.00
14818;BME280;7500;57.698;11.986;2022-08-19T06:03:38;101359.66;;;22.57;100.00
14818;BME280;7500;57.698;11.986;2022-08-19T06:06:07;101363.03;;;22.50;100.00
14818;BME280;7500;57.698;11.986;2022-08-19T06:08:34;101362.63;;;22.54;100.00
14818;BME280;7500;57.698;11.986;2022-08-19T06:11:15;101364.91;;;22.68;100.00
14818;BME280;7500;57.698;11.986;2022-08-19T06:13:43;101355.13;;;22.86;100.00
14818;BME280;7500;57.698;11.986;2022-08-19T06:16:12;101347.19;;;22.94;100.00
14818;BME280;7500;57.698;11.986;2022-08-19T06:18:46;101363.78;;;22.99;100.00
14818;BME280;7500;57.698;11.986;2022-08-19T06:21:13;101356.69;;;22.98;100.00
14818;BME280;7500;57.698;11.986;2022-08-19T06:23:40;101352.19;;;23.08;100.00
14818;BME280;7500;57.698;11.986;2022-08-19T06:26:13;101352.56;;;23.13;100.00
14818;BME280;7500;57.698;11.986;2022-08-19T06:28:40;101343.22;;;22.98;100.00
14818;BME280;7500;57.698;11.986;2022-08-19T06:31:08;101340.66;;;22.96;100.00
14818;BME280;7500;57.698;11.986;2022-08-19T06:33:35;101341.97;;;22.92;100.00
14818;BME280;7500;57.698;11.986;2022-08-19T06:36:03;101331.31;;;22.91;100.00
14818;BME280;7500;57.698;11.986;2022-08-19T06:38:31;101333.44;;;22.88;100.00
14818;BME280;7500;57.698;11.986;2022-08-19T06:41:00;101340.09;;;22.93;100.00
14818;BME280;7500;57.698;11.986;2022-08-19T06:43:29;101336.41;;;22.94;100.00
14818;BME280;7500;57.698;11.986;2022-08-19T06:45:55;101340.66;;;22.87;100.00
14818;BME280;7500;57.698;11.986;2022-08-19T06:48:24;101343.22;;;22.79;100.00
14818;BME280;7500;57.698;11.986;2022-08-19T06:50:51;101345.78;;;22.90;100.00
14818;BME280;7500;57.698;11.986;2022-08-19T06:53:18;101342.53;;;22.87;100.00
14818;BME280;7500;57.698;11.986;2022-08-19T06:55:45;101346.63;;;22.81;100.00
14818;BME280;7500;57.698;11.986;2022-08-19T06:58:12;101343.53;;;22.76;100.00
14818;BME280;7500;57.698;11.986;2022-08-19T07:00:40;101351.44;;;22.68;100.00
14818;BME280;7500;57.698;11.986;2022-08-19T07:03:07;101355.69;;;22.71;100.00
14818;BME280;7500;57.698;11.986;2022-08-19T07:05:39;101348.47;;;22.71;100.00
14818;BME280;7500;57.698;11.986;2022-08-19T07:08:05;101354.84;;;22.80;100.00
14818;BME280;7500;57.698;11.986;2022-08-19T07:10:33;101359.38;;;22.79;100.00
14818;BME280;7500;57.698;11.986;2022-08-19T07:13:00;101355.84;;;22.79;100.00
14818;BME280;7500;57.698;11.986;2022-08-19T07:15:27;101362.09;;;23.07;100.00
14818;BME280;7500;57.698;11.986;2022-08-19T07:17:55;101363.06;;;23.16;100.00
14818;BME280;7500;57.698;11.986;2022-08-19T07:20:22;101368.28;;;23.36;100.00
14818;BME280;7500;57.698;11.986;2022-08-19T07:22:49;101370.84;;;23.28;100.00
14818;BME280;7500;57.698;11.986;2022-08-19T07:25:16;101371.56;;;23.30;100.00
14818;BME280;7500;57.698;11.986;2022-08-19T07:27:43;101371.44;;;23.22;100.00
14818;BME280;7500;57.698;11.986;2022-08-19T07:30:11;101376.94;;;23.30;100.00
14818;BME280;7500;57.698;11.986;2022-08-19T07:32:38;101372.84;;;23.36;100.00
14818;BME280;7500;57.698;11.986;2022-08-19T07:35:08;101380.06;;;23.45;100.00
14818;BME280;7500;57.698;11.986;2022-08-19T07:37:35;101379.03;;;23.46;100.00
14818;BME280;7500;57.698;11.986;2022-08-19T07:40:03;101373.75;;;23.63;100.00
14818;BME280;7500;57.698;11.986;2022-08-19T07:42:30;101376.75;;;23.51;100.00
14818;BME280;7500;57.698;11.986;2022-08-19T07:44:57;101383.47;;;23.37;100.00
14818;BME280;7500;57.698;11.986;2022-08-19T07:47:24;101392.00;;;23.23;100.00
14818;BME280;7500;57.698;11.986;2022-08-19T07:49:53;101384.50;;;23.08;100.00
14818;BME280;7500;57.698;11.986;2022-08-19T07:52:21;101392.59;;;23.08;100.00
14818;BME280;7500;57.698;11.986;2022-08-19T07:54:48;101389.31;;;23.14;100.00
14818;BME280;7500;57.698;11.986;2022-08-19T07:57:16;101376.97;;;23.11;100.00
14818;BME280;7500;57.698;11.986;2022-08-19T07:59:44;101385.75;;;23.23;100.00
14818;BME280;7500;57.698;11.986;2022-08-19T08:02:11;101391.00;;;23.34;100.00
14818;BME280;7500;57.698;11.986;2022-08-19T08:04:38;101388.16;;;23.45;100.00
14818;BME280;7500;57.698;11.986;2022-08-19T08:07:23;101396.22;;;23.54;100.00
14818;BME280;7500;57.698;11.986;2022-08-19T08:10:08;101402.31;;;23.56;100.00
14818;BME280;7500;57.698;11.986;2022-08-19T08:12:37;101390.50;;;23.67;100.00
14818;BME280;7500;57.698;11.986;2022-08-19T08:15:09;101392.44;;;23.84;100.00
14818;BME280;7500;57.698;11.986;2022-08-19T08:17:36;101394.81;;;23.96;100.00
14818;BME280;7500;57.698;11.986;2022-08-19T08:20:05;101398.38;;;23.97;100.00
14818;BME280;7500;57.698;11.986;2022-08-19T08:22:34;101398.25;;;23.89;100.00
14818;BME280;7500;57.698;11.986;2022-08-19T08:25:20;101397.03;;;23.74;100.00
14818;BME280;7500;57.698;11.986;2022-08-19T08:27:48;101396.63;;;23.59;100.00
14818;BME280;7500;57.698;11.986;2022-08-19T08:30:17;101369.97;;;23.47;100.00
14818;BME280;7500;57.698;11.986;2022-08-19T08:32:44;101395.03;;;23.76;100.00
14818;BME280;7500;57.698;11.986;2022-08-19T08:35:13;101400.75;;;23.54;100.00
14818;BME280;7500;57.698;11.986;2022-08-19T08:37:42;101391.63;;;23.74;100.00
14818;BME280;7500;57.698;11.986;2022-08-19T08:40:16;101385.22;;;23.75;100.00
14818;BME280;7500;57.698;11.986;2022-08-19T08:42:51;101382.72;;;24.09;100.00
14818;BME280;7500;57.698;11.986;2022-08-19T08:45:21;101382.69;;;24.36;100.00
14818;BME280;7500;57.698;11.986;2022-08-19T08:47:52;101385.50;;;24.44;100.00
14818;BME280;7500;57.698;11.986;2022-08-19T08:50:26;101391.59;;;24.46;100.00
14818;BME280;7500;57.698;11.986;2022-08-19T08:52:57;101386.59;;;24.51;100.00
14818;BME280;7500;57.698;11.986;2022-08-19T08:55:26;101388.63;;;24.40;100.00
14818;BME280;7500;57.698;11.986;2022-08-19T08:57:59;101386.50;;;24.43;100.00
14818;BME280;7500;57.698;11.986;2022-08-19T09:00:29;101388.09;;;24.63;100.00
14818;BME280;7500;57.698;11.986;2022-08-19T09:02:58;101394.03;;;24.84;100.00
14818;BME280;7500;57.698;11.986;2022-08-19T09:05:32;101401.41;;;24.92;100.00
14818;BME280;7500;57.698;11.986;2022-08-19T09:08:07;101406.03;;;24.99;100.00
14818;BME280;7500;57.698;11.986;2022-08-19T09:10:37;101397.00;;;25.08;100.00
14818;BME280;7500;57.698;11.986;2022-08-19T09:13:10;101404.09;;;25.09;100.00
14818;BME280;7500;57.698;11.986;2022-08-19T09:15:43;101406.50;;;25.12;100.00
14818;BME280;7500;57.698;11.986;2022-08-19T09:18:11;101401.03;;;25.22;100.00
14818;BME280;7500;57.698;11.986;2022-08-19T09:20:38;101407.84;;;25.26;100.00
14818;BME280;7500;57.698;11.986;2022-08-19T09:23:06;101400.41;;;25.27;100.00
14818;BME280;7500;57.698;11.986;2022-08-19T09:25:33;101405.34;;;25.32;100.00
14818;BME280;7500;57.698;11.986;2022-08-19T09:28:01;101406.03;;;25.34;100.00
14818;BME280;7500;57.698;11.986;2022-08-19T09:30:30;101404.66;;;25.30;100.00
14818;BME280;7500;57.698;11.986;2022-08-19T09:32:57;101407.22;;;25.31;100.00
14818;BME280;7500;57.698;11.986;2022-08-19T09:35:27;101408.25;;;25.38;100.00
14818;BME280;7500;57.698;11.986;2022-08-19T09:37:55;101405.94;;;25.43;100.00
14818;BME280;7500;57.698;11.986;2022-08-19T09:40:25;101406.22;;;25.58;100.00
14818;BME280;7500;57.698;11.986;2022-08-19T09:42:52;101404.81;;;25.54;100.00
14818;BME280;7500;57.698;11.986;2022-08-19T09:45:20;101402.97;;;25.54;100.00
14818;BME280;7500;57.698;11.986;2022-08-19T09:47:48;101406.69;;;25.53;100.00
14818;BME280;7500;57.698;11.986;2022-08-19T09:50:16;101390.94;;;25.49;100.00
14818;BME280;7500;57.698;11.986;2022-08-19T09:52:43;101395.69;;;25.55;100.00
14818;BME280;7500;57.698;11.986;2022-08-19T09:55:10;101410.78;;;25.57;100.00
14818;BME280;7500;57.698;11.986;2022-08-19T09:57:39;101396.78;;;25.62;100.00
14818;BME280;7500;57.698;11.986;2022-08-19T10:00:08;101402.44;;;25.76;100.00
14818;BME280;7500;57.698;11.986;2022-08-19T10:02:35;101405.44;;;25.91;100.00
14818;BME280;7500;57.698;11.986;2022-08-19T10:05:03;101404.09;;;25.95;100.00
14818;BME280;7500;57.698;11.986;2022-08-19T10:07:47;101406.31;;;25.91;100.00
14818;BME280;7500;57.698;11.986;2022-08-19T10:10:15;101422.66;;;25.82;100.00
14818;BME280;7500;57.698;11.986;2022-08-19T10:12:43;101407.03;;;25.76;100.00
14818;BME280;7500;57.698;11.986;2022-08-19T10:15:13;101404.91;;;25.87;100.00
14818;BME280;7500;57.698;11.986;2022-08-19T10:17:40;101405.25;;;25.84;100.00
14818;BME280;7500;57.698;11.986;2022-08-19T10:20:08;101406.44;;;25.90;100.00
14818;BME280;7500;57.698;11.986;2022-08-19T10:22:35;101401.72;;;25.92;100.00
14818;BME280;7500;57.698;11.986;2022-08-19T10:25:04;101390.91;;;25.92;100.00
14818;BME280;7500;57.698;11.986;2022-08-19T10:27:31;101399.06;;;26.00;100.00
14818;BME280;7500;57.698;11.986;2022-08-19T10:30:00;101396.84;;;25.95;100.00
14818;BME280;7500;57.698;11.986;2022-08-19T10:32:27;101398.56;;;25.96;100.00
14818;BME280;7500;57.698;11.986;2022-08-19T10:34:55;101403.28;;;25.94;100.00
14818;BME280;7500;57.698;11.986;2022-08-19T10:37:21;101403.41;;;25.93;100.00
14818;BME280;7500;57.698;11.986;2022-08-19T10:39:48;101391.63;;;26.02;100.00
14818;BME280;7500;57.698;11.986;2022-08-19T10:42:15;101398.44;;;26.06;100.00
14818;BME280;7500;57.698;11.986;2022-08-19T10:44:44;101395.03;;;26.04;100.00
14818;BME280;7500;57.698;11.986;2022-08-19T10:47:13;101386.22;;;26.02;100.00
14818;BME280;7500;57.698;11.986;2022-08-19T10:49:40;101380.94;;;26.00;100.00
14818;BME280;7500;57.698;11.986;2022-08-19T10:52:21;101392.47;;;26.02;100.00
14818;BME280;7500;57.698;11.986;2022-08-19T10:55:00;101389.97;;;26.09;100.00
14818;BME280;7500;57.698;11.986;2022-08-19T10:57:44;101391.56;;;26.19;100.00
14818;BME280;7500;57.698;11.986;2022-08-19T11:00:12;101389.16;;;26.16;100.00
14818;BME280;7500;57.698;11.986;2022-08-19T11:02:41;101383.19;;;26.05;100.00
14818;BME280;7500;57.698;11.986;2022-08-19T11:05:08;101391.19;;;26.14;100.00
14818;BME280;7500;57.698;11.986;2022-08-19T11:07:37;101391.56;;;26.19;100.00
14818;BME280;7500;57.698;11.986;2022-08-19T11:10:05;101389.38;;;26.31;100.00
14818;BME280;7500;57.698;11.986;2022-08-19T11:12:33;101381.13;;;26.40;100.00
14818;BME280;7500;57.698;11.986;2022-08-19T11:15:00;101385.53;;;26.41;100.00
14818;BME280;7500;57.698;11.986;2022-08-19T11:17:26;101378.25;;;26.34;100.00
14818;BME280;7500;57.698;11.986;2022-08-19T11:19:56;101376.28;;;26.44;100.00
14818;BME280;7500;57.698;11.986;2022-08-19T11:22:23;101374.19;;;26.38;100.00
14818;BME280;7500;57.698;11.986;2022-08-19T11:24:50;101362.31;;;26.31;100.00
14818;BME280;7500;57.698;11.986;2022-08-19T11:27:17;101362.16;;;26.40;100.00
14818;BME280;7500;57.698;11.986;2022-08-19T11:29:43;101362.63;;;26.61;100.00
14818;BME280;7500;57.698;11.986;2022-08-19T11:32:10;101365.31;;;26.61;100.00
14818;BME280;7500;57.698;11.986;2022-08-19T11:34:38;101364.50;;;26.76;100.00
14818;BME280;7500;57.698;11.986;2022-08-19T11:37:07;101364.66;;;26.75;100.00
14818;BME280;7500;57.698;11.986;2022-08-19T11:39:35;101367.72;;;26.80;100.00
14818;BME280;7500;57.698;11.986;2022-08-19T11:42:03;101371.25;;;26.72;100.00
14818;BME280;7500;57.698;11.986;2022-08-19T11:44:51;101358.91;;;26.78;100.00
14818;BME280;7500;57.698;11.986;2022-08-19T11:47:19;101355.88;;;26.89;100.00
14818;BME280;7500;57.698;11.986;2022-08-19T11:49:46;101352.63;;;26.85;100.00
14818;BME280;7500;57.698;11.986;2022-08-19T11:52:14;101353.84;;;26.83;100.00
14818;BME280;7500;57.698;11.986;2022-08-19T11:54:41;101357.22;;;26.77;100.00
14818;BME280;7500;57.698;11.986;2022-08-19T11:57:08;101353.66;;;26.76;100.00
14818;BME280;7500;57.698;11.986;2022-08-19T11:59:34;101359.41;;;26.73;100.00
14818;BME280;7500;57.698;11.986;2022-08-19T12:02:01;101354.00;;;26.73;100.00
14818;BME280;7500;57.698;11.986;2022-08-19T12:04:28;101352.63;;;26.85;100.00
14818;BME280;7500;57.698;11.986;2022-08-19T12:06:55;101355.22;;;26.95;100.00
14818;BME280;7500;57.698;11.986;2022-08-19T12:09:23;101356.03;;;26.87;100.00
14818;BME280;7500;57.698;11.986;2022-08-19T12:11:50;101359.25;;;26.91;100.00
14818;BME280;7500;57.698;11.986;2022-08-19T12:14:17;101362.13;;;26.89;100.00
14818;BME280;7500;57.698;11.986;2022-08-19T12:16:45;101337.22;;;26.86;100.00
14818;BME280;7500;57.698;11.986;2022-08-19T12:19:12;101357.91;;;27.03;100.00
14818;BME280;7500;57.698;11.986;2022-08-19T12:21:39;101353.38;;;27.11;100.00
14818;BME280;7500;57.698;11.986;2022-08-19T12:24:06;101353.34;;;27.19;100.00
14818;BME280;7500;57.698;11.986;2022-08-19T12:26:35;101365.72;;;27.14;100.00
14818;BME280;7500;57.698;11.986;2022-08-19T12:29:02;101355.41;;;27.09;100.00
14818;BME280;7500;57.698;11.986;2022-08-19T12:31:29;101321.16;;;26.84;100.00
14818;BME280;7500;57.698;11.986;2022-08-19T12:33:57;101346.06;;;27.12;100.00
14818;BME280;7500;57.698;11.986;2022-08-19T12:36:24;101343.03;;;27.15;100.00
14818;BME280;7500;57.698;11.986;2022-08-19T12:38:52;101344.03;;;27.14;100.00
14818;BME280;7500;57.698;11.986;2022-08-19T12:41:19;101346.06;;;27.12;100.00
14818;BME280;7500;57.698;11.986;2022-08-19T12:43:49;101348.63;;;27.13;100.00
14818;BME280;7500;57.698;11.986;2022-08-19T12:46:18;101341.84;;;27.09;100.00
14818;BME280;7500;57.698;11.986;2022-08-19T12:48:45;101339.97;;;27.02;100.00